Time;durP1;ratioP1;P1;durP2;ratioP2;P2;SDS_P1;SDS_P2;PMS_P1;PMS_P2;Temp;Humidity;BMP_temperature;BMP_pressure;BME280_temperature;BME280_humidity;BME280_pressure;Samples;Min_cycle;Max_cycle;Signal;HPM_P1;HPM_P2
2021/12/16 00:09:12;;;;;;;19.40;15.83;;;3.90;99.90;;;;;;5096590;28;20841;-79
2021/12/16 00:33:18;;;;;;;22.13;17.23;;;3.80;99.90;;;;;;5096123;28;20193;-78
2021/12/16 00:35:51;;;;;;;20.63;16.27;;;3.70;99.90;;;;;;5096019;28;20542;-78
2021/12/16 00:38:17;;;;;;;21.97;16.90;;;3.70;99.90;;;;;;5094327;28;20762;-79
2021/12/16 00:40:43;;;;;;;23.20;18.20;;;3.70;99.90;;;;;;5093470;28;20206;-79
2021/12/16 00:48:25;;;;;;;24.03;17.33;;;3.70;99.90;;;;;;5095957;28;20174;-79
2021/12/16 00:56:10;;;;;;;24.70;17.80;;;3.70;99.90;;;;;;5095781;28;20204;-79
2021/12/16 00:58:44;;;;;;;22.40;17.07;;;3.70;99.90;;;;;;5095322;28;20218;-77
2021/12/16 01:01:22;;;;;;;25.03;18.47;;;3.70;99.90;;;;;;5094741;28;20213;-79
2021/12/16 01:04:12;;;;;;;26.03;19.17;;;3.70;99.90;;;;;;5093945;28;20512;-79
2021/12/16 01:34:19;;;;;;;27.07;18.97;;;3.80;99.90;;;;;;5095724;28;20231;-80
2021/12/16 01:47:54;;;;;;;25.73;19.23;;;3.90;99.90;;;;;;5109896;28;20168;-78
2021/12/16 01:50:28;;;;;;;27.47;19.90;;;4.00;99.90;;;;;;5116565;28;20201;-78
2021/12/16 01:55:31;;;;;;;27.23;20.00;;;4.00;99.90;;;;;;5118802;28;20162;-80
2021/12/16 01:58:09;;;;;;;25.50;19.80;;;4.10;99.90;;;;;;5117847;28;20211;-80
2021/12/16 02:00:57;;;;;;;28.40;19.67;;;4.10;99.90;;;;;;5112413;28;20290;-80
2021/12/16 02:03:37;;;;;;;26.60;19.33;;;4.00;99.90;;;;;;5101286;28;20182;-79
2021/12/16 02:06:12;;;;;;;24.43;19.40;;;3.80;99.90;;;;;;5101124;28;20177;-79
2021/12/16 02:08:39;;;;;;;24.80;18.80;;;4.00;99.90;;;;;;5098962;28;20533;-78
2021/12/16 02:27:32;;;;;;;31.00;20.30;;;3.60;99.90;;;;;;5097805;28;20239;-77
2021/12/16 02:37:54;;;;;;;26.40;18.63;;;3.60;99.90;;;;;;5098623;28;20224;-79
2021/12/16 02:40:20;;;;;;;31.70;20.70;;;3.50;99.90;;;;;;5097675;28;20205;-78
2021/12/16 02:48:29;;;;;;;32.27;20.70;;;3.50;99.90;;;;;;5099467;28;20176;-80
2021/12/16 02:50:57;;;;;;;30.53;19.33;;;3.50;99.90;;;;;;5097920;28;20205;-79
2021/12/16 02:53:22;;;;;;;29.73;19.30;;;3.50;99.90;;;;;;5097536;28;20242;-81
2021/12/16 02:55:48;;;;;;;31.93;20.83;;;3.50;99.90;;;;;;5099019;28;20173;-79
2021/12/16 02:58:15;;;;;;;30.20;19.80;;;3.50;99.90;;;;;;5098575;28;20213;-78
2021/12/16 03:00:45;;;;;;;31.30;20.37;;;3.60;99.90;;;;;;5097089;28;20201;-77
2021/12/16 03:03:10;;;;;;;31.00;20.70;;;3.60;99.90;;;;;;5097485;28;20204;-78
2021/12/16 03:05:37;;;;;;;31.60;21.00;;;3.50;99.90;;;;;;5097965;28;20178;-78
2021/12/16 03:08:04;;;;;;;29.90;21.20;;;3.60;99.90;;;;;;5097666;28;20507;-78
2021/12/16 03:13:10;;;;;;;30.67;20.03;;;3.80;99.90;;;;;;5096367;28;20169;-78
2021/12/16 03:18:25;;;;;;;29.67;19.60;;;3.70;99.90;;;;;;5097484;28;20240;-78
2021/12/16 03:20:58;;;;;;;30.57;19.83;;;3.60;99.90;;;;;;5096095;28;20213;-79
2021/12/16 03:26:19;;;;;;;31.70;20.43;;;3.70;99.90;;;;;;5097079;28;20242;-79
2021/12/16 03:34:28;;;;;;;31.27;20.07;;;3.70;99.90;;;;;;5096465;28;20633;-79
2021/12/16 03:37:15;;;;;;;31.43;20.90;;;3.60;99.90;;;;;;5096474;28;20178;-79
2021/12/16 03:39:42;;;;;;;28.33;19.40;;;3.50;99.90;;;;;;5096057;28;20231;-78
2021/12/16 03:42:08;;;;;;;31.27;19.10;;;3.40;99.90;;;;;;5095783;28;20177;-78
2021/12/16 03:44:54;;;;;;;26.27;16.80;;;3.50;99.90;;;;;;5096526;28;20653;-79
2021/12/16 03:47:30;;;;;;;26.77;16.07;;;3.40;99.90;;;;;;5096370;28;20182;-78
2021/12/16 03:49:56;;;;;;;25.10;16.77;;;3.40;99.90;;;;;;5095567;28;20683;-78
2021/12/16 03:52:22;;;;;;;29.17;16.53;;;3.40;99.90;;;;;;5095926;28;20185;-79
2021/12/16 03:54:51;;;;;;;25.47;15.40;;;3.40;99.90;;;;;;5097176;28;20633;-79
2021/12/16 03:57:21;;;;;;;22.63;15.30;;;3.30;99.90;;;;;;5097619;28;20174;-80
2021/12/16 03:59:48;;;;;;;25.90;15.57;;;3.60;99.90;;;;;;5096461;28;20584;-80
2021/12/16 04:02:27;;;;;;;23.07;14.30;;;3.50;99.90;;;;;;5096393;28;20173;-79
2021/12/16 04:04:53;;;;;;;20.50;13.33;;;3.40;99.90;;;;;;5096836;28;20624;-79
2021/12/16 04:07:21;;;;;;;22.73;15.10;;;3.40;99.90;;;;;;5096426;28;20200;-78
2021/12/16 04:09:50;;;;;;;20.77;14.83;;;3.50;99.90;;;;;;5096152;28;20208;-79
2021/12/16 04:12:20;;;;;;;20.97;14.10;;;3.50;99.90;;;;;;5096466;28;20787;-79
2021/12/16 04:14:48;;;;;;;20.77;13.93;;;3.50;99.90;;;;;;5097978;28;20170;-80
2021/12/16 04:17:14;;;;;;;22.30;14.43;;;3.50;99.90;;;;;;5099726;28;20174;-80
2021/12/16 04:19:40;;;;;;;20.93;15.13;;;3.50;99.90;;;;;;5098204;28;20218;-80
2021/12/16 04:22:17;;;;;;;23.50;16.23;;;3.50;99.90;;;;;;5100717;28;20637;-79
2021/12/16 04:24:46;;;;;;;24.13;15.27;;;3.40;99.90;;;;;;5100779;28;20182;-79
2021/12/16 04:27:13;;;;;;;22.07;14.33;;;3.40;99.90;;;;;;5101560;28;20189;-80
2021/12/16 04:29:39;;;;;;;22.57;14.93;;;3.60;99.90;;;;;;5101549;28;20634;-79
2021/12/16 04:32:05;;;;;;;28.37;16.43;;;3.60;99.90;;;;;;5099326;28;20183;-79
2021/12/16 04:34:33;;;;;;;27.47;17.30;;;3.60;99.90;;;;;;5099314;28;20177;-80
2021/12/16 04:37:00;;;;;;;24.77;16.40;;;3.60;99.90;;;;;;5098053;28;20181;-78
2021/12/16 04:39:28;;;;;;;24.07;15.60;;;3.40;99.90;;;;;;5097200;28;20213;-77
2021/12/16 04:41:56;;;;;;;26.70;15.87;;;3.50;99.90;;;;;;5101917;28;20185;-78
2021/12/16 04:44:25;;;;;;;27.00;16.57;;;3.50;99.90;;;;;;5100835;28;20174;-78
2021/12/16 04:46:51;;;;;;;26.90;15.97;;;3.40;99.90;;;;;;5099314;28;20178;-79
2021/12/16 04:49:17;;;;;;;24.67;15.60;;;3.60;99.90;;;;;;5098251;28;20232;-79
2021/12/16 04:51:47;;;;;;;25.40;15.93;;;3.40;99.90;;;;;;5098202;28;20203;-79
2021/12/16 04:54:17;;;;;;;25.70;16.00;;;3.40;99.90;;;;;;5096483;28;20183;-78
2021/12/16 04:56:42;;;;;;;28.60;16.67;;;3.40;99.90;;;;;;5096455;28;20166;-78
2021/12/16 04:59:10;;;;;;;23.83;15.07;;;3.50;99.90;;;;;;5097250;28;20625;-78
2021/12/16 05:01:39;;;;;;;24.17;15.77;;;3.60;99.90;;;;;;5095582;28;20688;-77
2021/12/16 05:04:05;;;;;;;24.17;15.37;;;3.50;99.90;;;;;;5095596;28;20170;-77
2021/12/16 05:06:31;;;;;;;25.80;14.27;;;3.60;99.90;;;;;;5095096;28;20170;-78
2021/12/16 05:08:57;;;;;;;24.53;14.83;;;3.50;99.90;;;;;;5095819;28;20177;-77
2021/12/16 05:11:23;;;;;;;25.90;14.60;;;3.40;99.90;;;;;;5095898;28;20193;-78
2021/12/16 05:13:49;;;;;;;23.57;14.83;;;3.40;99.90;;;;;;5095359;28;20182;-78
2021/12/16 05:16:14;;;;;;;24.27;14.90;;;3.40;99.90;;;;;;5095434;28;20177;-78
2021/12/16 05:18:41;;;;;;;22.67;14.70;;;3.40;99.90;;;;;;5095512;28;20221;-78
2021/12/16 05:21:15;;;;;;;22.83;14.23;;;3.50;99.90;;;;;;5096118;28;20193;-78
2021/12/16 05:26:25;;;;;;;24.13;14.80;;;3.40;99.90;;;;;;5097649;28;20223;-78
2021/12/16 05:28:57;;;;;;;21.17;14.63;;;3.40;99.90;;;;;;5095335;28;20178;-77
2021/12/16 05:31:25;;;;;;;21.23;13.70;;;3.50;99.90;;;;;;5095627;28;20193;-77
2021/12/16 05:33:52;;;;;;;24.33;15.17;;;3.50;99.90;;;;;;5097236;28;20307;-78
2021/12/16 05:36:18;;;;;;;24.13;15.33;;;3.40;99.90;;;;;;5096219;28;20193;-77
2021/12/16 05:38:44;;;;;;;21.33;14.43;;;3.80;99.90;;;;;;5096818;28;20214;-78
2021/12/16 05:41:13;;;;;;;24.57;14.37;;;3.30;99.90;;;;;;5096155;28;20562;-78
2021/12/16 05:43:39;;;;;;;25.30;16.87;;;3.30;99.90;;;;;;5097639;28;20552;-78
2021/12/16 05:46:08;;;;;;;21.33;14.73;;;3.50;99.90;;;;;;5097348;28;20186;-78
2021/12/16 05:48:37;;;;;;;24.80;17.47;;;3.60;99.90;;;;;;5097187;28;20177;-78
2021/12/16 05:51:07;;;;;;;21.43;14.63;;;3.60;99.90;;;;;;5095651;28;20701;-77
2021/12/16 05:53:34;;;;;;;21.43;14.50;;;3.50;99.90;;;;;;5094836;28;20192;-78
2021/12/16 05:56:00;;;;;;;21.17;14.07;;;3.50;99.90;;;;;;5095977;28;20184;-78
2021/12/16 05:58:27;;;;;;;25.30;17.53;;;3.50;99.90;;;;;;5095776;28;20274;-78
2021/12/16 06:00:59;;;;;;;22.57;15.33;;;3.60;99.90;;;;;;5134063;22;20209;-77
2021/12/16 06:03:25;;;;;;;23.70;14.43;;;3.60;99.90;;;;;;5054403;28;20206;-76
2021/12/16 06:05:52;;;;;;;20.57;14.03;;;3.60;99.90;;;;;;5054373;28;20262;-77
2021/12/16 06:08:17;;;;;;;21.37;14.23;;;3.70;99.90;;;;;;5053218;28;20179;-77
2021/12/16 06:13:10;;;;;;;25.43;17.97;;;3.60;99.90;;;;;;5054133;28;20175;-77
2021/12/16 06:26:31;;;;;;;21.27;15.10;;;3.80;99.90;;;;;;5053172;28;20182;-76
2021/12/16 06:28:57;;;;;;;21.93;15.90;;;3.90;99.90;;;;;;5052917;28;20183;-76
2021/12/16 06:31:22;;;;;;;22.77;14.80;;;3.90;99.90;;;;;;5052065;28;20198;-76
2021/12/16 06:33:49;;;;;;;19.87;14.10;;;3.90;99.90;;;;;;5052483;28;20186;-75
2021/12/16 06:36:15;;;;;;;22.13;14.17;;;3.90;99.90;;;;;;5052691;28;20179;-74
2021/12/16 06:38:40;;;;;;;22.27;14.47;;;3.90;99.90;;;;;;5052370;28;20226;-74
2021/12/16 06:41:06;;;;;;;21.17;16.67;;;3.90;99.90;;;;;;5050877;28;20428;-72
2021/12/16 06:43:33;;;;;;;18.97;14.63;;;3.90;99.90;;;;;;5051714;28;20185;-72
2021/12/16 06:46:01;;;;;;;22.23;15.10;;;4.00;99.90;;;;;;5052406;28;20240;-72
2021/12/16 06:48:31;;;;;;;20.33;13.10;;;4.00;99.90;;;;;;5052201;28;20184;-75
2021/12/16 06:51:05;;;;;;;22.10;15.70;;;4.00;99.90;;;;;;5065246;28;20259;-75
2021/12/16 06:53:43;;;;;;;20.10;14.43;;;4.00;99.90;;;;;;5069482;28;20234;-74
2021/12/16 06:56:16;;;;;;;19.93;14.27;;;4.00;99.90;;;;;;5071620;28;20251;-75
2021/12/16 06:58:49;;;;;;;21.13;16.90;;;4.00;99.90;;;;;;5052786;28;20298;-75
2021/12/16 07:04:18;;;;;;;26.57;20.10;;;3.90;99.90;;;;;;5018335;28;20193;-75
2021/12/16 07:06:44;;;;;;;23.03;15.37;;;4.00;99.90;;;;;;5051823;28;20183;-75
2021/12/16 07:09:16;;;;;;;26.50;17.60;;;4.00;99.90;;;;;;5051352;28;20186;-76
2021/12/16 07:11:44;;;;;;;24.50;16.47;;;4.00;99.90;;;;;;5051816;28;20195;-75
2021/12/16 07:14:15;;;;;;;21.63;14.90;;;4.00;99.90;;;;;;5051558;28;20202;-75
2021/12/16 07:16:43;;;;;;;21.20;14.00;;;4.10;99.90;;;;;;5052007;28;20628;-75
2021/12/16 07:19:09;;;;;;;20.63;13.80;;;4.10;99.90;;;;;;5051457;28;20583;-76
2021/12/16 07:21:38;;;;;;;20.70;13.90;;;4.10;99.90;;;;;;5051303;28;20675;-75
2021/12/16 07:24:08;;;;;;;19.27;13.50;;;4.10;99.90;;;;;;5051440;28;20179;-75
2021/12/16 07:26:34;;;;;;;20.90;13.63;;;3.90;99.90;;;;;;5051813;28;20171;-75
2021/12/16 07:29:00;;;;;;;23.03;14.00;;;3.90;99.90;;;;;;5051555;28;20185;-75
2021/12/16 07:31:28;;;;;;;21.27;14.50;;;4.00;99.90;;;;;;5051010;28;20195;-76
2021/12/16 07:33:54;;;;;;;21.90;13.97;;;4.20;99.90;;;;;;5051766;28;20234;-75
2021/12/16 07:36:20;;;;;;;20.73;13.70;;;4.10;99.90;;;;;;5051702;28;20175;-76
2021/12/16 07:38:46;;;;;;;20.10;13.47;;;4.10;99.90;;;;;;5051258;28;20220;-76
2021/12/16 07:41:13;;;;;;;21.43;13.87;;;4.10;99.90;;;;;;5051905;28;20662;-75
2021/12/16 07:43:55;;;;;;;19.93;13.70;;;4.30;99.90;;;;;;5051838;28;20183;-76
2021/12/16 07:46:22;;;;;;;22.60;13.83;;;4.30;99.90;;;;;;5051935;28;20194;-75
2021/12/16 07:48:48;;;;;;;21.13;13.60;;;4.20;99.90;;;;;;5051121;28;20419;-76
2021/12/16 07:51:14;;;;;;;24.27;14.27;;;4.30;99.90;;;;;;5053761;28;20793;-75
2021/12/16 07:53:40;;;;;;;22.43;13.60;;;4.30;99.90;;;;;;5052087;28;20194;-76
2021/12/16 07:56:06;;;;;;;21.80;14.40;;;4.00;99.90;;;;;;5054908;28;20616;-76
2021/12/16 07:58:32;;;;;;;21.33;14.27;;;4.10;99.90;;;;;;5054992;28;20248;-76
2021/12/16 08:00:58;;;;;;;22.70;14.27;;;4.10;99.90;;;;;;5054406;28;20233;-76
2021/12/16 08:03:26;;;;;;;22.20;14.47;;;4.20;99.90;;;;;;5055194;28;20178;-76
2021/12/16 08:05:58;;;;;;;25.23;15.13;;;4.40;99.90;;;;;;5055321;28;20297;-76
2021/12/16 08:08:24;;;;;;;24.10;15.20;;;4.30;99.90;;;;;;5055422;28;20434;-76
2021/12/16 08:10:53;;;;;;;23.10;14.33;;;4.40;99.90;;;;;;5054532;28;20195;-76
2021/12/16 08:13:19;;;;;;;21.80;14.03;;;4.40;99.90;;;;;;5054852;28;20171;-75
2021/12/16 08:15:45;;;;;;;24.43;15.33;;;4.40;99.90;;;;;;5054932;28;20178;-76
2021/12/16 08:18:11;;;;;;;23.13;13.87;;;4.40;99.90;;;;;;5054888;28;20211;-76
2021/12/16 08:20:37;;;;;;;23.77;14.60;;;4.20;99.90;;;;;;5054331;28;20194;-76
2021/12/16 08:23:04;;;;;;;24.17;15.53;;;4.30;99.90;;;;;;5054888;28;20225;-75
2021/12/16 08:25:32;;;;;;;23.53;15.40;;;4.20;99.90;;;;;;5054685;28;20175;-75
2021/12/16 08:27:59;;;;;;;22.70;15.27;;;4.30;99.90;;;;;;5054638;28;20199;-76
2021/12/16 08:30:28;;;;;;;25.67;14.97;;;4.40;99.90;;;;;;5054012;28;20274;-76
2021/12/16 08:32:55;;;;;;;24.13;14.70;;;4.30;99.90;;;;;;5054874;28;20336;-76
2021/12/16 08:35:20;;;;;;;25.07;15.40;;;4.30;99.90;;;;;;5054898;28;20188;-76
2021/12/16 08:37:46;;;;;;;23.93;14.77;;;4.20;99.90;;;;;;5054365;28;20172;-76
2021/12/16 08:40:17;;;;;;;23.43;14.90;;;4.30;99.90;;;;;;5053953;28;20203;-76
2021/12/16 08:42:43;;;;;;;25.33;15.40;;;4.30;99.90;;;;;;5054380;28;20288;-76
2021/12/16 08:45:18;;;;;;;25.67;14.87;;;4.30;99.90;;;;;;5054672;28;20179;-75
2021/12/16 08:47:44;;;;;;;26.40;17.23;;;4.40;99.90;;;;;;5054695;28;20573;-76
2021/12/16 08:50:13;;;;;;;28.00;14.80;;;4.40;99.90;;;;;;5054107;28;20203;-76
2021/12/16 08:52:38;;;;;;;26.63;15.33;;;4.30;99.90;;;;;;5055034;28;20183;-76
2021/12/16 08:55:05;;;;;;;23.37;15.20;;;4.30;99.90;;;;;;5054822;28;20179;-77
2021/12/16 08:57:31;;;;;;;22.93;15.00;;;4.20;99.90;;;;;;5055589;28;20182;-77
2021/12/16 08:59:56;;;;;;;25.63;14.37;;;4.10;99.90;;;;;;5054223;28;20661;-77
2021/12/16 09:02:22;;;;;;;25.67;15.10;;;4.20;99.90;;;;;;5054646;28;20190;-77
2021/12/16 09:04:50;;;;;;;21.70;14.03;;;4.20;99.90;;;;;;5054470;28;20855;-76
2021/12/16 09:07:16;;;;;;;23.17;15.00;;;4.30;99.90;;;;;;5053496;28;20183;-76
2021/12/16 09:09:44;;;;;;;23.03;13.83;;;4.30;99.90;;;;;;5053755;28;20408;-76
2021/12/16 09:12:37;;;;;;;22.07;14.57;;;4.40;99.90;;;;;;5053785;28;20691;-76
2021/12/16 09:15:07;;;;;;;23.03;14.23;;;4.60;99.90;;;;;;5053747;28;20179;-77
2021/12/16 09:17:33;;;;;;;22.93;14.73;;;4.40;99.90;;;;;;5053954;28;20175;-77
2021/12/16 09:19:58;;;;;;;21.33;13.40;;;4.40;99.90;;;;;;5056117;28;20690;-76
2021/12/16 09:22:26;;;;;;;23.90;15.03;;;4.50;99.90;;;;;;5057193;28;20221;-76
2021/12/16 09:24:54;;;;;;;23.80;14.17;;;4.40;99.90;;;;;;5056415;28;20628;-76
2021/12/16 09:27:20;;;;;;;22.27;14.90;;;4.50;99.90;;;;;;5054211;28;20244;-77
2021/12/16 09:29:46;;;;;;;24.20;15.13;;;4.50;99.90;;;;;;5053184;28;20195;-77
2021/12/16 09:32:12;;;;;;;23.20;14.20;;;4.70;99.90;;;;;;5053573;28;20179;-76
2021/12/16 09:34:40;;;;;;;22.17;14.57;;;4.90;99.90;;;;;;5053653;28;20179;-76
2021/12/16 09:37:06;;;;;;;24.57;14.27;;;4.80;99.90;;;;;;5053564;28;20583;-76
2021/12/16 09:39:32;;;;;;;19.87;13.53;;;4.60;99.90;;;;;;5053055;28;20214;-76
2021/12/16 09:41:59;;;;;;;21.43;13.67;;;4.50;99.90;;;;;;5053776;28;20543;-77
2021/12/16 09:44:26;;;;;;;22.57;14.07;;;4.70;99.90;;;;;;5053196;28;20405;-77
2021/12/16 09:46:55;;;;;;;22.67;14.40;;;4.80;99.90;;;;;;5053201;28;20562;-76
2021/12/16 09:49:22;;;;;;;22.57;14.53;;;4.70;99.90;;;;;;5052669;28;20186;-77
2021/12/16 09:51:50;;;;;;;21.87;14.57;;;4.60;99.90;;;;;;5053256;28;20198;-77
2021/12/16 09:54:19;;;;;;;20.03;13.50;;;4.80;99.90;;;;;;5053299;28;20214;-77
2021/12/16 09:56:47;;;;;;;20.53;13.10;;;4.80;99.90;;;;;;5053523;28;20183;-77
2021/12/16 09:59:15;;;;;;;26.13;13.90;;;4.60;99.90;;;;;;5052710;28;20234;-77
2021/12/16 10:01:43;;;;;;;21.20;13.60;;;4.70;99.90;;;;;;5052949;28;20214;-76
2021/12/16 10:04:13;;;;;;;19.90;13.47;;;4.70;99.90;;;;;;5053034;28;20179;-77
2021/12/16 10:06:52;;;;;;;21.13;14.17;;;4.70;99.90;;;;;;5053324;28;20258;-77
2021/12/16 10:09:19;;;;;;;25.23;14.17;;;4.80;99.90;;;;;;5040516;28;20179;-78
2021/12/16 10:11:48;;;;;;;21.00;13.03;;;4.90;99.90;;;;;;5052831;28;20187;-77
2021/12/16 10:14:30;;;;;;;20.93;13.77;;;4.80;99.90;;;;;;5052688;28;20179;-76
2021/12/16 10:19:43;;;;;;;22.03;13.57;;;4.70;99.90;;;;;;5051641;28;20690;-76
2021/12/16 10:22:25;;;;;;;21.13;13.37;;;5.00;99.90;;;;;;5052639;28;20613;-76
2021/12/16 10:24:54;;;;;;;20.70;13.40;;;5.00;99.90;;;;;;5052486;28;20282;-76
2021/12/16 10:27:23;;;;;;;23.10;14.00;;;5.10;99.90;;;;;;5053908;28;20171;-76
2021/12/16 10:29:59;;;;;;;25.03;14.23;;;5.20;99.90;;;;;;5051787;28;20195;-76
2021/12/16 10:32:45;;;;;;;21.23;13.10;;;5.20;99.90;;;;;;5052413;28;20652;-76
2021/12/16 10:35:28;;;;;;;20.90;13.23;;;5.30;90.40;;;;;;5052715;28;20261;-76
2021/12/16 10:38:06;;;;;;;19.07;13.07;;;5.10;99.90;;;;;;5054117;28;20197;-77
2021/12/16 10:40:43;;;;;;;20.40;13.27;;;5.00;99.90;;;;;;5051851;28;20199;-76
2021/12/16 10:43:32;;;;;;;17.67;12.03;;;5.20;99.90;;;;;;5052252;28;20175;-76
2021/12/16 10:46:11;;;;;;;19.57;13.20;;;5.20;99.70;;;;;;5052639;28;20175;-76
2021/12/16 10:48:41;;;;;;;20.20;13.70;;;5.30;99.90;;;;;;5052832;28;20190;-76
2021/12/16 10:51:20;;;;;;;19.53;13.03;;;5.10;99.90;;;;;;5051721;28;20536;-76
2021/12/16 10:54:00;;;;;;;20.87;13.43;;;4.90;99.90;;;;;;5052155;28;20171;-76
2021/12/16 10:56:36;;;;;;;18.97;13.13;;;5.00;99.90;;;;;;5052269;28;20262;-76
2021/12/16 10:59:12;;;;;;;19.07;13.17;;;5.00;99.90;;;;;;5051889;28;20203;-76
2021/12/16 11:01:48;;;;;;;20.50;13.33;;;5.20;99.90;;;;;;5051990;28;20231;-77
2021/12/16 11:04:38;;;;;;;17.90;12.50;;;5.10;99.90;;;;;;5052082;28;20182;-75
2021/12/16 11:07:09;;;;;;;18.93;12.87;;;4.90;99.90;;;;;;5051967;28;20246;-76
2021/12/16 11:09:39;;;;;;;19.13;13.13;;;5.20;99.90;;;;;;5051467;28;20171;-76
2021/12/16 11:12:23;;;;;;;22.00;13.60;;;5.30;85.50;;;;;;5051830;28;20182;-76
2021/12/16 11:14:53;;;;;;;19.20;12.17;;;5.40;66.00;;;;;;5051792;28;20662;-77
2021/12/16 11:17:21;;;;;;;18.10;12.57;;;5.50;3.90;;;;;;5052554;28;20221;-77
2021/12/16 11:19:50;;;;;;;17.67;12.37;;;5.50;1.00;;;;;;5051841;28;20294;-77
2021/12/16 11:22:23;;;;;;;20.50;13.20;;;5.70;1.00;;;;;;5052223;28;20202;-77
2021/12/16 11:24:52;;;;;;;18.07;13.13;;;5.60;1.00;;;;;;5051806;28;20199;-77
2021/12/16 11:27:20;;;;;;;22.50;13.17;;;5.60;1.00;;;;;;5054910;28;20182;-76
2021/12/16 11:29:46;;;;;;;19.70;12.70;;;5.60;1.00;;;;;;5050585;28;20199;-76
2021/12/16 11:32:39;;;;;;;18.10;11.83;;;5.40;1.00;;;;;;5051614;28;20539;-76
2021/12/16 11:35:35;;;;;;;20.17;12.23;;;5.40;35.70;;;;;;5051704;28;20182;-76
2021/12/16 11:38:06;;;;;;;17.97;12.57;;;5.30;13.70;;;;;;5051870;28;20186;-77
2021/12/16 11:40:59;;;;;;;17.60;12.73;;;5.30;54.00;;;;;;5051309;28;20225;-78
2021/12/16 11:43:39;;;;;;;18.60;13.03;;;5.50;16.00;;;;;;5051164;28;20180;-76
2021/12/16 11:46:07;;;;;;;19.77;13.13;;;5.60;1.00;;;;;;5051461;28;20197;-76
2021/12/16 11:48:36;;;;;;;21.40;13.77;;;5.40;1.00;;;;;;5051635;28;20174;-77
2021/12/16 11:51:19;;;;;;;20.97;13.93;;;5.50;1.00;;;;;;5049518;28;20202;-77
2021/12/16 11:53:49;;;;;;;18.87;12.73;;;5.50;19.30;;;;;;5051457;28;20179;-76
2021/12/16 11:56:18;;;;;;;19.67;12.90;;;5.40;12.60;;;;;;5051756;28;20577;-76
2021/12/16 11:58:45;;;;;;;18.97;12.63;;;5.60;21.90;;;;;;5051118;28;20214;-76
2021/12/16 12:04:00;;;;;;;18.63;12.73;;;5.80;1.00;;;;;;5069257;28;20221;-77
2021/12/16 12:06:29;;;;;;;22.80;13.57;;;5.70;1.00;;;;;;5072006;28;20662;-77
2021/12/16 12:08:57;;;;;;;19.93;12.50;;;5.70;1.00;;;;;;5071861;28;20209;-78
2021/12/16 12:11:29;;;;;;;19.97;12.63;;;5.60;1.00;;;;;;5056119;28;20629;-79
2021/12/16 12:14:02;;;;;;;18.63;12.47;;;5.40;1.00;;;;;;5051996;28;20233;-78
2021/12/16 12:16:31;;;;;;;18.10;12.67;;;5.60;26.60;;;;;;5051647;28;20179;-75
2021/12/16 12:19:00;;;;;;;19.20;12.53;;;5.80;1.00;;;;;;5051535;28;20207;-75
2021/12/16 12:21:57;;;;;;;20.33;12.90;;;5.70;1.00;;;;;;5051193;28;20223;-75
2021/12/16 12:24:39;;;;;;;20.17;11.87;;;5.70;1.00;;;;;;5052253;28;20237;-75
2021/12/16 12:27:11;;;;;;;22.87;12.23;;;5.70;1.00;;;;;;5051448;28;20651;-76
2021/12/16 12:29:40;;;;;;;18.47;12.53;;;5.70;1.00;;;;;;5050696;28;20196;-75
2021/12/16 12:32:09;;;;;;;16.90;11.97;;;5.80;1.00;;;;;;5051280;28;20191;-75
2021/12/16 12:34:37;;;;;;;16.97;12.10;;;5.80;1.00;;;;;;5051448;28;20183;-76
2021/12/16 12:37:07;;;;;;;18.40;11.53;;;5.70;1.00;;;;;;5051221;28;20250;-76
2021/12/16 12:39:42;;;;;;;18.00;11.93;;;5.70;1.00;;;;;;5050305;28;20567;-75
2021/12/16 12:42:11;;;;;;;18.57;11.97;;;5.70;1.00;;;;;;5052887;28;20550;-75
2021/12/16 12:44:36;;;;;;;18.37;11.17;;;5.90;1.00;;;;;;5054754;28;20179;-75
2021/12/16 12:47:05;;;;;;;19.27;10.67;;;5.90;1.00;;;;;;5054896;28;20179;-76
2021/12/16 12:49:31;;;;;;;16.40;11.00;;;5.80;1.00;;;;;;5054240;28;20270;-75
2021/12/16 12:52:14;;;;;;;20.27;11.50;;;5.80;1.00;;;;;;5054383;28;20705;-75
2021/12/16 12:54:43;;;;;;;17.70;11.20;;;5.90;1.00;;;;;;5054907;28;20187;-76
2021/12/16 12:57:31;;;;;;;17.57;11.50;;;5.70;1.00;;;;;;5054326;28;20581;-76
2021/12/16 12:59:58;;;;;;;16.40;11.00;;;5.60;1.00;;;;;;5053778;28;20700;-73
2021/12/16 13:02:29;;;;;;;14.93;11.13;;;5.60;1.00;;;;;;5054054;28;20187;-73
2021/12/16 13:05:06;;;;;;;16.23;11.13;;;5.70;1.00;;;;;;5054608;28;20571;-74
2021/12/16 13:07:45;;;;;;;13.97;10.27;;;5.70;1.00;;;;;;5052463;28;20178;-74
2021/12/16 13:10:21;;;;;;;16.77;10.40;;;6.00;1.00;;;;;;5051782;28;20187;-74
2021/12/16 13:12:59;;;;;;;13.47;9.97;;;6.10;1.00;;;;;;5051305;28;20248;-74
2021/12/16 13:15:48;;;;;;;14.47;11.03;;;6.20;1.00;;;;;;5053005;28;20183;-74
2021/12/16 13:27:19;;;;;;;13.73;9.70;;;6.30;1.00;;;;;;5052866;28;20628;-74
2021/12/16 13:32:44;;;;;;;15.17;10.00;;;6.50;1.00;;;;;;5053712;28;20183;-75
2021/12/16 13:35:23;;;;;;;15.43;10.67;;;6.40;1.00;;;;;;5053584;28;20179;-74
2021/12/16 13:37:54;;;;;;;17.23;10.07;;;6.40;1.00;;;;;;5053136;28;20201;-75
2021/12/16 13:40:27;;;;;;;16.70;9.37;;;6.40;1.00;;;;;;5053049;28;20333;-74
2021/12/16 13:42:57;;;;;;;13.00;9.67;;;6.50;1.00;;;;;;5053347;28;20232;-75
2021/12/16 13:45:46;;;;;;;13.80;8.50;;;6.60;1.00;;;;;;5053725;28;20168;-74
2021/12/16 14:08:04;;;;;;;12.20;9.40;;;6.30;1.00;;;;;;5067947;28;20549;-76
2021/12/16 14:10:45;;;;;;;14.40;9.20;;;6.30;1.00;;;;;;5072531;28;20281;-75
2021/12/16 14:16:42;;;;;;;14.63;9.40;;;6.30;1.00;;;;;;5072765;28;20174;-74
2021/12/16 14:36:55;;;;;;;18.27;10.70;;;6.20;1.00;;;;;;5053010;28;20182;-74
2021/12/16 14:47:57;;;;;;;16.50;10.53;;;6.30;1.00;;;;;;5048408;28;20183;-76
2021/12/16 14:50:27;;;;;;;16.43;11.10;;;6.30;1.00;;;;;;5051714;28;20222;-75
2021/12/16 14:52:54;;;;;;;19.50;10.73;;;6.10;1.00;;;;;;5048495;28;20187;-74
2021/12/16 14:55:22;;;;;;;15.10;10.03;;;6.00;1.00;;;;;;5052119;28;20543;-74
2021/12/16 14:57:53;;;;;;;15.90;10.37;;;5.90;1.00;;;;;;5051789;28;20179;-75
2021/12/16 15:00:37;;;;;;;14.20;10.03;;;5.90;1.00;;;;;;5051698;28;20219;-75
2021/12/16 15:03:17;;;;;;;15.63;10.80;;;5.80;1.00;;;;;;5056049;28;20236;-73
2021/12/16 15:05:59;;;;;;;24.10;11.47;;;5.80;1.00;;;;;;5049162;28;20182;-74
2021/12/16 15:09:18;;;;;;;16.33;10.40;;;5.80;1.00;;;;;;5049369;28;20190;-75
2021/12/16 15:11:32;;;;;;;17.57;10.83;;;5.70;1.00;;;;;;5046904;28;20707;-74
2021/12/16 15:14:03;;;;;;;15.10;11.03;;;5.70;1.00;;;;;;5049614;28;20190;-75
2021/12/16 15:34:44;;;;;;;14.97;10.40;;;5.30;1.00;;;;;;5055811;28;20646;-78
2021/12/16 15:36:31;;;;;;;13.83;10.53;;;5.30;1.00;;;;;;5049988;28;20421;-75
2021/12/16 15:44:11;;;;;;;17.30;10.50;;;5.10;23.50;;;;;;5049398;28;20182;-75
2021/12/16 15:46:38;;;;;;;19.77;10.90;;;5.00;62.10;;;;;;5050780;28;20180;-76
2021/12/16 15:49:04;;;;;;;15.47;11.20;;;4.80;98.00;;;;;;5049573;28;20321;-75
2021/12/16 15:51:31;;;;;;;14.47;10.47;;;4.60;99.90;;;;;;5047658;28;20191;-75
2021/12/16 15:53:59;;;;;;;17.90;12.43;;;4.60;99.90;;;;;;5051538;28;20167;-75
2021/12/16 15:56:34;;;;;;;16.53;10.70;;;4.60;99.90;;;;;;5051966;28;20183;-74
2021/12/16 15:59:11;;;;;;;15.27;11.20;;;4.70;99.90;;;;;;5051141;28;20256;-75
2021/12/16 16:01:44;;;;;;;17.33;11.40;;;4.60;99.90;;;;;;5049924;28;20198;-75
2021/12/16 16:04:14;;;;;;;17.20;11.63;;;4.60;99.90;;;;;;5050746;28;20178;-75
2021/12/16 16:06:46;;;;;;;16.80;12.47;;;4.60;99.90;;;;;;5050466;28;20528;-76
2021/12/16 16:09:15;;;;;;;16.87;12.73;;;4.60;99.90;;;;;;5049628;28;20577;-75
2021/12/16 16:11:45;;;;;;;18.30;12.00;;;4.70;99.90;;;;;;5048834;28;20213;-75
2021/12/16 16:14:12;;;;;;;19.00;12.20;;;4.60;99.90;;;;;;5051050;28;20221;-75
2021/12/16 16:16:45;;;;;;;20.03;12.43;;;4.60;99.90;;;;;;5056780;28;20566;-75
2021/12/16 16:19:13;;;;;;;18.00;12.87;;;4.40;99.90;;;;;;5061330;28;20211;-74
2021/12/16 16:21:45;;;;;;;17.47;12.00;;;4.40;99.90;;;;;;5055840;28;20191;-75
2021/12/16 16:24:30;;;;;;;16.80;11.57;;;4.30;99.90;;;;;;5055062;28;20547;-74
2021/12/16 16:26:59;;;;;;;20.23;13.07;;;4.30;99.90;;;;;;5055244;28;20628;-77
2021/12/16 16:29:28;;;;;;;18.30;13.17;;;4.20;99.90;;;;;;5054463;28;20217;-75
2021/12/16 16:31:56;;;;;;;18.37;12.73;;;4.00;99.90;;;;;;5054593;28;20183;-78
2021/12/16 16:34:23;;;;;;;19.73;13.70;;;3.90;99.90;;;;;;5054915;28;20171;-75
2021/12/16 16:36:54;;;;;;;21.97;14.07;;;3.80;99.90;;;;;;5053020;28;20570;-78
2021/12/16 16:39:24;;;;;;;20.70;13.90;;;3.80;99.90;;;;;;5054275;28;20210;-75
2021/12/16 16:42:02;;;;;;;19.40;12.93;;;3.70;99.90;;;;;;5054329;28;20191;-77
2021/12/16 16:44:30;;;;;;;19.70;12.67;;;3.60;99.90;;;;;;5054146;28;20171;-75
2021/12/16 16:47:12;;;;;;;18.53;12.60;;;3.50;99.90;;;;;;5054523;28;20643;-76
2021/12/16 16:49:49;;;;;;;17.50;11.27;;;3.50;99.90;;;;;;5054873;28;20171;-77